createdAt,value
2018-08-17T00:02:25.985Z,18.87
2018-08-17T00:04:56.597Z,18.85
2018-08-17T00:07:27.127Z,18.88
2018-08-17T00:09:57.744Z,19.04
2018-08-17T00:12:28.203Z,19.13
2018-08-17T00:14:58.764Z,19.23
2018-08-17T00:17:29.347Z,19.24
2018-08-17T00:19:59.848Z,19.36
2018-08-17T00:22:30.289Z,19.38
2018-08-17T00:25:00.765Z,19.40
2018-08-17T00:27:31.229Z,19.53
2018-08-17T00:30:02.223Z,19.48
2018-08-17T00:32:32.658Z,19.47
2018-08-17T00:35:03.542Z,19.38
2018-08-17T00:37:34.166Z,19.37
2018-08-17T00:40:04.631Z,19.30
2018-08-17T00:42:35.136Z,19.19
2018-08-17T00:45:06.960Z,19.14
2018-08-17T00:47:37.542Z,19.13
2018-08-17T00:50:08.144Z,19.07
2018-08-17T00:52:38.652Z,19.01
2018-08-17T00:55:09.170Z,18.93
2018-08-17T00:57:39.642Z,18.90
2018-08-17T01:00:10.176Z,18.82
2018-08-17T01:02:40.676Z,18.84
2018-08-17T01:05:11.138Z,18.76
2018-08-17T01:07:41.826Z,18.82
2018-08-17T01:10:12.651Z,18.79
2018-08-17T01:12:43.386Z,18.78
2018-08-17T01:15:14.160Z,18.74
2018-08-17T01:17:44.707Z,18.63
2018-08-17T01:20:15.820Z,18.64
2018-08-17T01:22:46.202Z,18.55
2018-08-17T01:25:50.904Z,18.42
2018-08-17T01:28:20.841Z,18.24
2018-08-17T01:30:51.472Z,18.16
2018-08-17T01:33:21.344Z,18.27
2018-08-17T01:35:51.217Z,18.11
2018-08-17T01:38:21.754Z,18.22
2018-08-17T01:40:51.624Z,18.10
2018-08-17T01:43:21.691Z,18.00
2018-08-17T01:45:52.759Z,18.12
2018-08-17T01:48:23.188Z,18.09
2018-08-17T01:50:53.777Z,18.15
2018-08-17T01:53:24.210Z,18.26
2018-08-17T01:55:54.588Z,18.35
2018-08-17T01:58:24.414Z,18.37
2018-08-17T02:00:54.298Z,18.30
2018-08-17T02:03:24.164Z,18.19
2018-08-17T02:05:54.070Z,18.07
2018-08-17T02:08:23.959Z,18.09
2018-08-17T02:10:53.894Z,18.08
2018-08-17T02:13:23.780Z,18.20
2018-08-17T02:15:53.901Z,18.14
2018-08-17T02:18:23.795Z,18.11
2018-08-17T02:20:53.728Z,18.04
2018-08-17T02:23:24.139Z,18.03
2018-08-17T02:25:54.708Z,17.99
2018-08-17T02:28:24.714Z,17.96
2018-08-17T02:30:54.638Z,18.06
2018-08-17T02:33:24.669Z,18.07
2018-08-17T02:35:54.615Z,18.14
2018-08-17T02:38:24.622Z,18.14
2018-08-17T02:40:54.926Z,18.14
2018-08-17T02:43:24.866Z,18.07
2018-08-17T02:45:54.755Z,18.00
2018-08-17T02:48:24.590Z,17.91
2018-08-17T02:50:54.436Z,17.76
2018-08-17T02:57:47.738Z,17.64
2018-08-17T03:00:17.852Z,17.69
2018-08-17T03:02:47.738Z,17.43
2018-08-17T03:05:18.644Z,17.32
2018-08-17T03:07:48.859Z,17.30
2018-08-17T03:13:54.519Z,17.19
2018-08-17T03:16:24.329Z,17.14
2018-08-17T03:18:54.237Z,17.18
2018-08-17T03:21:24.144Z,17.20
2018-08-17T03:23:54.055Z,17.21
2018-08-17T03:30:48.062Z,17.14
2018-08-17T03:33:18.187Z,17.28
2018-08-17T03:35:48.161Z,17.24
2018-08-17T03:38:18.102Z,17.34
2018-08-17T03:40:48.094Z,17.49
2018-08-17T03:46:54.029Z,17.28
2018-08-17T03:49:23.861Z,17.25
2018-08-17T03:51:53.862Z,17.18
2018-08-17T03:54:24.036Z,17.08
2018-08-17T03:56:54.087Z,17.03
2018-08-17T03:59:24.067Z,16.98
2018-08-17T04:01:54.039Z,17.08
2018-08-17T04:04:23.915Z,17.27
2018-08-17T04:06:53.839Z,17.36
2018-08-17T04:09:23.709Z,17.34
2018-08-17T04:11:53.629Z,17.30
2018-08-17T04:14:24.259Z,17.37
2018-08-17T04:16:54.197Z,17.26
2018-08-17T04:19:24.063Z,17.34
2018-08-17T04:21:54.083Z,17.39
2018-08-17T04:24:23.948Z,17.42
2018-08-17T04:26:53.896Z,17.25
2018-08-17T04:29:23.895Z,17.17
2018-08-17T04:31:53.848Z,17.25
2018-08-17T04:34:23.937Z,17.39
2018-08-17T04:36:53.851Z,17.43
2018-08-17T04:39:23.805Z,17.55
2018-08-17T04:41:53.985Z,17.57
2018-08-17T04:44:23.901Z,17.63
2018-08-17T04:46:53.877Z,17.74
2018-08-17T04:49:23.874Z,17.89
2018-08-17T04:51:53.926Z,17.86
2018-08-17T04:54:23.824Z,17.90
2018-08-17T04:56:53.680Z,18.05
2018-08-17T04:59:23.863Z,18.10
2018-08-17T05:01:54.389Z,18.10
2018-08-17T05:04:24.620Z,18.21
2018-08-17T05:06:54.534Z,18.30
2018-08-17T05:09:24.557Z,18.43
2018-08-17T05:12:45.657Z,18.53
2018-08-17T05:15:16.102Z,18.68
2018-08-17T05:17:45.952Z,18.66
2018-08-17T05:20:17.606Z,19.75
2018-08-17T05:22:48.650Z,21.31
2018-08-17T05:25:19.330Z,22.69
2018-08-17T05:27:49.776Z,24.10
2018-08-17T05:30:20.241Z,24.93
2018-08-17T05:32:50.790Z,24.94
2018-08-17T05:35:21.314Z,23.62
2018-08-17T05:37:52.002Z,24.00
2018-08-17T05:40:22.464Z,24.61
2018-08-17T05:42:52.958Z,25.40
2018-08-17T05:45:23.502Z,25.91
2018-08-17T05:47:53.798Z,26.88
2018-08-17T05:50:24.237Z,27.61
2018-08-17T05:52:54.258Z,28.32
2018-08-17T05:55:24.295Z,28.80
2018-08-17T05:57:54.431Z,29.08
2018-08-17T06:00:25.429Z,28.68
2018-08-17T06:02:56.261Z,26.92
2018-08-17T06:05:26.555Z,25.07
2018-08-17T06:07:56.879Z,24.79
2018-08-17T06:10:27.734Z,25.68
2018-08-17T06:12:58.071Z,27.13
2018-08-17T06:15:28.502Z,27.42
2018-08-17T06:17:59.150Z,28.61
2018-08-17T06:20:29.870Z,28.27
2018-08-17T06:23:00.976Z,28.67
2018-08-17T06:25:31.467Z,28.54
2018-08-17T06:28:01.863Z,28.32
2018-08-17T06:30:32.284Z,28.68
2018-08-17T06:33:02.728Z,28.70
2018-08-17T06:35:33.192Z,28.54
2018-08-17T06:38:03.935Z,28.48
2018-08-17T06:40:34.672Z,28.64
2018-08-17T06:43:05.336Z,28.72
2018-08-17T06:45:35.979Z,28.92
2018-08-17T06:48:06.490Z,28.06
2018-08-17T06:50:37.248Z,27.84
2018-08-17T06:53:08.300Z,27.84
2018-08-17T06:55:38.739Z,27.49
2018-08-17T06:58:09.506Z,26.54
2018-08-17T07:00:39.990Z,25.42
2018-08-17T07:03:11.125Z,24.83
2018-08-17T07:05:41.548Z,24.59
2018-08-17T07:08:11.962Z,24.08
2018-08-17T07:10:42.352Z,23.34
2018-08-17T07:13:13.074Z,22.97
2018-08-17T07:15:43.508Z,22.85
2018-08-17T07:18:14.314Z,22.81
2018-08-17T07:20:44.742Z,23.01
2018-08-17T07:23:15.272Z,23.19
2018-08-17T07:25:45.997Z,22.78
2018-08-17T07:28:16.544Z,22.99
2018-08-17T07:30:47.524Z,23.27
2018-08-17T07:33:18.236Z,23.46
2018-08-17T07:35:48.684Z,23.92
2018-08-17T07:38:19.173Z,24.34
2018-08-17T07:40:49.609Z,24.68
2018-08-17T07:43:20.169Z,24.76
2018-08-17T07:45:51.002Z,24.74
2018-08-17T07:48:22.077Z,24.73
2018-08-17T07:50:52.607Z,24.92
2018-08-17T07:53:23.355Z,25.58
2018-08-17T07:55:53.716Z,26.30
2018-08-17T07:58:24.327Z,26.58
2018-08-17T08:00:55.170Z,27.16
2018-08-17T08:03:25.931Z,27.28
2018-08-17T08:05:56.747Z,27.63
2018-08-17T08:08:27.525Z,27.95
2018-08-17T08:10:57.929Z,28.17
2018-08-17T08:13:28.497Z,28.01
2018-08-17T08:15:59.239Z,28.01
2018-08-17T08:18:29.963Z,28.16
2018-08-17T08:21:00.387Z,28.24
2018-08-17T08:23:31.319Z,28.12
2018-08-17T08:26:01.825Z,27.94
2018-08-17T08:28:32.424Z,28.25
2018-08-17T08:31:02.973Z,28.50
2018-08-17T08:33:33.425Z,28.63
2018-08-17T08:36:03.864Z,28.50
2018-08-17T08:38:33.991Z,28.43
2018-08-17T08:41:04.384Z,28.63
2018-08-17T08:43:34.586Z,28.15
2018-08-17T08:46:04.661Z,28.04
2018-08-17T08:48:35.029Z,27.94
2018-08-17T08:51:05.525Z,27.93
2018-08-17T08:53:35.833Z,28.06
2018-08-17T08:56:06.128Z,27.93
2018-08-17T08:58:36.830Z,28.05
2018-08-17T09:01:08.241Z,27.98
2018-08-17T09:03:38.361Z,27.88
2018-08-17T09:06:08.591Z,27.95
2018-08-17T09:08:38.995Z,28.21
2018-08-17T09:11:09.579Z,28.23
2018-08-17T09:13:39.720Z,28.42
2018-08-17T09:16:10.101Z,28.11
2018-08-17T09:18:40.519Z,28.43
2018-08-17T09:21:10.583Z,28.30
2018-08-17T09:23:40.636Z,27.88
2018-08-17T09:26:11.102Z,27.89
2018-08-17T09:28:41.293Z,28.14
2018-08-17T09:31:11.959Z,28.26
2018-08-17T09:33:42.135Z,28.18
2018-08-17T09:36:13.077Z,28.18
2018-08-17T09:38:43.211Z,28.56
2018-08-17T09:41:13.354Z,28.89
2018-08-17T09:43:44.235Z,29.19
2018-08-17T09:46:14.511Z,29.35
2018-08-17T09:48:44.638Z,29.50
2018-08-17T09:51:14.958Z,29.52
2018-08-17T09:53:45.986Z,29.52
2018-08-17T09:56:16.204Z,29.44
2018-08-17T09:58:46.362Z,29.42
2018-08-17T10:01:22.133Z,29.49
2018-08-17T10:03:57.537Z,29.72
2018-08-17T10:06:33.159Z,29.61
2018-08-17T10:09:09.880Z,29.75
2018-08-17T10:11:40.078Z,29.66
2018-08-17T10:14:10.262Z,29.69
2018-08-17T10:16:40.822Z,29.85
2018-08-17T10:19:11.018Z,29.66
2018-08-17T10:21:46.299Z,29.65
2018-08-17T10:24:16.692Z,29.98
2018-08-17T10:26:48.054Z,29.92
2018-08-17T10:29:18.576Z,29.99
2018-08-17T10:31:49.006Z,30.15
2018-08-17T10:34:19.461Z,30.14
2018-08-17T10:36:49.794Z,30.27
2018-08-17T10:39:19.902Z,30.02
2018-08-17T10:41:50.921Z,30.39
2018-08-17T10:44:21.081Z,30.51
2018-08-17T10:46:51.221Z,30.48
2018-08-17T10:49:21.547Z,30.51
2018-08-17T10:51:55.684Z,30.65
2018-08-17T10:54:26.836Z,30.66
2018-08-17T10:56:57.399Z,30.87
2018-08-17T10:59:27.526Z,31.02
2018-08-17T11:01:57.624Z,31.06
2018-08-17T11:04:27.795Z,31.00
2018-08-17T11:06:57.939Z,31.02
2018-08-17T11:09:28.081Z,31.06
2018-08-17T11:11:59.014Z,31.35
2018-08-17T11:14:29.143Z,31.32
2018-08-17T11:18:29.066Z,30.73
2018-08-17T11:21:00.238Z,31.13
2018-08-17T11:23:30.464Z,31.19
2018-08-17T11:26:00.592Z,30.95
2018-08-17T11:28:32.442Z,30.83
2018-08-17T11:31:02.830Z,31.07
2018-08-17T11:33:34.104Z,31.35
2018-08-17T11:36:04.268Z,31.63
2018-08-17T11:38:34.568Z,31.74
2018-08-17T11:41:04.750Z,31.72
2018-08-17T11:43:34.992Z,31.48
2018-08-17T11:46:05.582Z,31.19
2018-08-17T11:48:36.588Z,30.78
2018-08-17T11:51:07.739Z,31.02
2018-08-17T11:53:38.015Z,30.81
2018-08-17T11:56:08.954Z,31.06
2018-08-17T11:58:39.424Z,31.36
2018-08-17T12:01:15.224Z,31.43
2018-08-17T12:03:45.384Z,31.62
2018-08-17T12:06:15.850Z,31.69
2018-08-17T12:08:45.939Z,31.58
2018-08-17T12:11:16.043Z,32.01
2018-08-17T12:13:46.128Z,32.14
2018-08-17T12:16:16.217Z,31.97
2018-08-17T12:18:46.412Z,32.01
2018-08-17T12:21:16.738Z,32.02
2018-08-17T12:23:47.118Z,31.97
2018-08-17T12:26:17.773Z,31.63
2018-08-17T12:28:48.056Z,31.66
2018-08-17T12:31:18.153Z,31.85
2018-08-17T12:33:48.496Z,32.01
2018-08-17T12:36:18.780Z,32.14
2018-08-17T12:38:49.305Z,32.34
2018-08-17T12:41:20.409Z,32.26
2018-08-17T12:43:50.580Z,32.45
2018-08-17T12:46:20.760Z,32.62
2018-08-17T12:48:50.981Z,32.73
2018-08-17T12:51:21.169Z,32.84
2018-08-17T12:53:51.311Z,32.38
2018-08-17T12:56:22.427Z,32.17
2018-08-17T12:58:52.596Z,31.85
2018-08-17T13:01:22.798Z,31.82
2018-08-17T13:03:52.965Z,31.69
2018-08-17T13:06:23.162Z,31.93
2018-08-17T13:10:22.348Z,32.37
2018-08-17T13:12:58.079Z,32.27
2018-08-17T13:15:28.468Z,32.52
2018-08-17T13:18:01.106Z,32.60
2018-08-17T13:20:31.337Z,32.77
2018-08-17T13:23:01.591Z,32.85
2018-08-17T13:25:32.176Z,32.85
2018-08-17T13:28:02.273Z,32.85
2018-08-17T13:30:32.387Z,32.48
2018-08-17T13:33:02.607Z,32.01
2018-08-17T13:35:32.727Z,32.46
2018-08-17T13:38:02.901Z,32.52
2018-08-17T13:40:32.957Z,32.56
2018-08-17T13:43:03.242Z,32.36
2018-08-17T13:45:33.603Z,32.02
2018-08-17T13:48:03.809Z,30.95
2018-08-17T13:50:34.024Z,30.21
2018-08-17T13:53:04.234Z,29.92
2018-08-17T13:55:34.419Z,29.66
2018-08-17T13:58:04.708Z,29.82
2018-08-17T14:00:34.918Z,29.95
2018-08-17T14:03:05.057Z,30.04
2018-08-17T14:05:35.207Z,29.46
2018-08-17T14:08:05.385Z,29.09
2018-08-17T14:10:36.118Z,29.07
2018-08-17T14:13:06.862Z,29.13
2018-08-17T14:15:37.031Z,29.55
2018-08-17T14:18:08.328Z,29.83
2018-08-17T14:20:38.457Z,30.13
2018-08-17T14:23:08.624Z,30.20
2018-08-17T14:25:39.873Z,30.28
2018-08-17T14:28:10.099Z,30.07
2018-08-17T14:30:40.224Z,30.36
2018-08-17T14:33:10.334Z,30.68
2018-08-17T14:35:40.481Z,29.88
2018-08-17T14:38:10.597Z,29.28
2018-08-17T14:40:40.697Z,29.07
2018-08-17T14:43:10.845Z,29.19
2018-08-17T14:45:42.065Z,29.01
2018-08-17T14:48:12.253Z,28.88
2018-08-17T14:50:42.993Z,28.63
2018-08-17T14:53:13.156Z,28.51
2018-08-17T14:55:43.411Z,28.05
2018-08-17T14:58:13.910Z,27.04
2018-08-17T15:00:44.418Z,26.26
2018-08-17T15:03:15.169Z,25.09
2018-08-17T15:05:45.994Z,23.99
2018-08-17T15:08:16.417Z,22.55
2018-08-17T15:10:47.144Z,21.64
2018-08-17T15:13:17.577Z,20.76
2018-08-17T15:15:48.156Z,19.51
2018-08-17T15:18:18.865Z,18.98
2018-08-17T15:20:48.835Z,18.78
2018-08-17T15:23:18.691Z,18.59
2018-08-17T15:25:49.201Z,18.65
2018-08-17T15:28:19.079Z,18.65
2018-08-17T15:30:49.041Z,18.59
2018-08-17T15:33:19.591Z,18.72
2018-08-17T15:35:50.085Z,18.79
2018-08-17T15:41:56.066Z,18.73
2018-08-17T15:44:27.037Z,18.89
2018-08-17T15:46:58.173Z,18.83
2018-08-17T15:49:33.175Z,18.75
2018-08-17T15:52:04.774Z,18.68
2018-08-17T15:54:35.582Z,18.62
2018-08-17T15:57:05.862Z,18.80
2018-08-17T15:59:35.685Z,19.00
2018-08-17T16:02:06.107Z,19.16
2018-08-17T16:04:36.501Z,18.78
2018-08-17T16:07:06.646Z,18.78
2018-08-17T16:09:37.518Z,19.13
2018-08-17T16:12:08.003Z,19.40
2018-08-17T16:14:38.448Z,19.56
2018-08-17T16:17:09.144Z,19.84
2018-08-17T16:19:39.583Z,19.55
2018-08-17T16:22:10.041Z,19.47
2018-08-17T16:24:40.648Z,19.62
2018-08-17T16:27:46.207Z,19.51
2018-08-17T16:30:16.693Z,19.64
2018-08-17T16:32:47.217Z,19.73
2018-08-17T16:35:17.893Z,19.78
2018-08-17T16:37:49.267Z,19.81
2018-08-17T16:40:20.125Z,19.82
2018-08-17T16:42:52.311Z,19.96
2018-08-17T16:45:22.798Z,20.09
2018-08-17T16:47:53.410Z,20.23
2018-08-17T16:50:24.020Z,20.35
2018-08-17T16:52:54.472Z,20.45
2018-08-17T16:55:25.082Z,20.51
2018-08-17T16:57:55.559Z,20.53
2018-08-17T17:00:26.902Z,20.54
2018-08-17T17:02:58.026Z,20.46
2018-08-17T17:05:28.422Z,20.38
2018-08-17T17:07:58.863Z,20.20
2018-08-17T17:10:31.572Z,20.26
2018-08-17T17:13:01.966Z,20.33
2018-08-17T17:15:32.454Z,20.01
2018-08-17T17:18:08.633Z,19.72
2018-08-17T17:20:40.388Z,19.75
2018-08-17T17:23:12.004Z,19.45
2018-08-17T17:25:42.784Z,19.40
2018-08-17T17:28:14.168Z,19.47
2018-08-17T17:30:49.389Z,19.47
2018-08-17T17:33:20.464Z,19.30
2018-08-17T17:35:51.491Z,19.23
2018-08-17T17:38:21.350Z,19.26
2018-08-17T17:40:51.787Z,19.09
2018-08-17T17:43:21.922Z,18.94
2018-08-17T17:45:51.827Z,18.92
2018-08-17T17:48:21.703Z,18.90
2018-08-17T17:50:51.578Z,18.98
2018-08-17T17:53:21.397Z,19.01
2018-08-17T17:55:51.677Z,18.84
2018-08-17T17:58:22.092Z,18.70
2018-08-17T18:01:00.886Z,18.77
2018-08-17T18:03:31.876Z,18.94
2018-08-17T18:06:08.996Z,18.83
2018-08-17T18:08:38.759Z,18.96
2018-08-17T18:11:09.654Z,18.98
2018-08-17T18:13:40.108Z,18.88
2018-08-17T18:16:10.003Z,18.82
2018-08-17T18:18:40.223Z,18.87
2018-08-17T18:21:10.158Z,18.81
2018-08-17T18:23:40.069Z,18.65
2018-08-17T18:26:17.723Z,18.54
2018-08-17T18:28:47.842Z,18.42
2018-08-17T18:31:17.946Z,18.24
2018-08-17T18:33:47.842Z,18.18
2018-08-17T18:36:17.649Z,18.08
2018-08-17T18:38:47.824Z,18.03
2018-08-17T18:41:17.726Z,18.00
2018-08-17T18:43:47.905Z,17.89
2018-08-17T18:46:18.217Z,17.86
2018-08-17T18:48:48.294Z,17.87
2018-08-17T18:51:18.370Z,17.77
2018-08-17T18:53:48.262Z,17.77
2018-08-17T18:56:18.036Z,17.79
2018-08-17T18:58:48.699Z,17.86
2018-08-17T19:01:18.853Z,17.86
2018-08-17T19:03:48.740Z,17.88
2018-08-17T19:06:18.535Z,17.85
2018-08-17T19:08:48.727Z,17.93
2018-08-17T19:11:18.772Z,17.93
2018-08-17T19:15:17.978Z,17.94
2018-08-17T19:17:47.806Z,17.94
2018-08-17T19:20:17.891Z,18.00
2018-08-17T19:22:47.751Z,18.12
2018-08-17T19:25:17.593Z,18.22
2018-08-17T19:27:47.511Z,18.25
2018-08-17T19:30:25.719Z,18.36
2018-08-17T19:32:58.144Z,18.34
2018-08-17T19:35:28.009Z,18.42
2018-08-17T19:37:57.871Z,18.42
2018-08-17T19:40:27.711Z,18.48
2018-08-17T19:42:57.583Z,18.55
2018-08-17T19:45:27.447Z,18.47
2018-08-17T19:47:57.305Z,18.12
2018-08-17T19:50:27.117Z,17.89
2018-08-17T19:52:57.429Z,17.91
2018-08-17T19:56:56.751Z,17.88
2018-08-17T19:59:26.963Z,17.72
2018-08-17T20:01:56.991Z,17.67
2018-08-17T20:04:26.855Z,17.76
2018-08-17T20:06:56.647Z,17.77
2018-08-17T20:09:26.613Z,17.55
2018-08-17T20:11:56.553Z,17.46
2018-08-17T20:14:27.357Z,17.43
2018-08-17T20:16:57.145Z,17.47
2018-08-17T20:19:35.765Z,17.40
2018-08-17T20:22:10.301Z,17.65
2018-08-17T20:24:40.175Z,17.82
2018-08-17T20:27:09.979Z,17.93
2018-08-17T20:29:39.883Z,17.97
2018-08-17T20:32:10.418Z,18.11
2018-08-17T20:34:46.196Z,18.29
2018-08-17T20:37:17.767Z,18.25
2018-08-17T20:39:48.169Z,18.25
2018-08-17T20:42:18.937Z,18.45
2018-08-17T20:44:48.901Z,18.41
2018-08-17T20:47:18.717Z,18.49
2018-08-17T20:49:48.515Z,18.50
2018-08-17T20:52:18.509Z,18.52
2018-08-17T20:54:49.335Z,18.52
2018-08-17T20:57:19.411Z,18.58
2018-08-17T20:59:50.029Z,18.54
2018-08-17T21:02:20.223Z,18.65
2018-08-17T21:04:50.145Z,18.67
2018-08-17T21:07:19.965Z,18.61
2018-08-17T21:09:50.491Z,18.57
2018-08-17T21:12:21.027Z,18.40
2018-08-17T21:14:51.649Z,18.26
2018-08-17T21:17:21.987Z,18.27
2018-08-17T21:19:51.820Z,18.31
2018-08-17T21:22:21.678Z,18.34
2018-08-17T21:24:51.654Z,18.40
2018-08-17T21:27:21.489Z,18.38
2018-08-17T21:29:51.264Z,18.38
2018-08-17T21:32:22.545Z,18.44
2018-08-17T21:34:52.988Z,18.54
2018-08-17T21:37:25.695Z,18.61
2018-08-17T21:39:55.541Z,18.49
2018-08-17T21:42:25.353Z,18.49
2018-08-17T21:44:55.840Z,18.39
2018-08-17T21:47:25.981Z,18.48
2018-08-17T21:50:16.856Z,18.38
2018-08-17T21:52:47.209Z,18.39
2018-08-17T21:55:17.759Z,18.45
2018-08-17T21:57:48.145Z,18.41
2018-08-17T22:00:26.912Z,18.45
2018-08-17T22:02:57.591Z,18.51
2018-08-17T22:05:29.423Z,18.49
2018-08-17T22:08:00.383Z,18.52
2018-08-17T22:10:31.204Z,18.61
2018-08-17T22:13:01.029Z,18.57
2018-08-17T22:15:31.933Z,18.59
2018-08-17T22:18:02.455Z,18.73
2018-08-17T22:20:32.321Z,18.79
2018-08-17T22:23:02.342Z,18.70
2018-08-17T22:25:32.585Z,18.64
2018-08-17T22:28:02.735Z,18.54
2018-08-17T22:30:33.532Z,18.49
2018-08-17T22:33:03.941Z,18.46
2018-08-17T22:35:33.883Z,18.49
2018-08-17T22:38:03.780Z,18.49
2018-08-17T22:40:33.762Z,18.27
2018-08-17T22:43:03.644Z,18.25
2018-08-17T22:45:33.463Z,18.18
2018-08-17T22:48:03.582Z,18.28
2018-08-17T22:50:33.586Z,18.29
2018-08-17T22:53:03.931Z,18.32
2018-08-17T22:55:33.820Z,18.23
2018-08-17T22:58:03.622Z,18.09
2018-08-17T23:00:33.773Z,17.99
2018-08-17T23:03:03.641Z,18.00
2018-08-17T23:05:37.664Z,17.99
2018-08-17T23:08:07.617Z,17.97
2018-08-17T23:10:37.860Z,17.96
2018-08-17T23:13:07.968Z,18.09
2018-08-17T23:15:37.873Z,18.06
2018-08-17T23:18:08.582Z,18.11
2018-08-17T23:20:39.007Z,18.09
2018-08-17T23:23:09.342Z,18.12
2018-08-17T23:25:39.281Z,18.24
2018-08-17T23:28:09.206Z,18.24
2018-08-17T23:30:39.208Z,18.25
2018-08-17T23:33:10.339Z,18.32
2018-08-17T23:35:40.205Z,18.33
2018-08-17T23:38:10.314Z,18.50
2018-08-17T23:40:40.314Z,18.44
2018-08-17T23:43:10.173Z,18.37
2018-08-17T23:45:40.674Z,18.33
2018-08-17T23:48:10.534Z,18.47
2018-08-17T23:50:40.389Z,18.50
2018-08-17T23:53:11.892Z,18.47
2018-08-17T23:55:41.844Z,18.42
2018-08-17T23:58:11.732Z,18.33
